sensor_id;sensor_type;location;lat;lon;timestamp;pressure;altitude;pressure_sealevel;temperature;humidity
75551;BME280;65071;53.082;18.218;2023-07-31T00:02:08;100613.59;;;18.62;67.45
75551;BME280;65071;53.082;18.218;2023-07-31T00:04:34;100613.75;;;18.56;68.38
75551;BME280;65071;53.082;18.218;2023-07-31T00:07:00;100614.80;;;18.52;68.36
75551;BME280;65071;53.082;18.218;2023-07-31T00:09:30;100620.89;;;18.49;68.14
75551;BME280;65071;53.082;18.218;2023-07-31T00:11:57;100620.02;;;18.44;68.14
75551;BME280;65071;53.082;18.218;2023-07-31T00:14:23;100622.65;;;18.43;68.04
75551;BME280;65071;53.082;18.218;2023-07-31T00:16:50;100614.74;;;18.39;68.49
75551;BME280;65071;53.082;18.218;2023-07-31T00:19:16;100617.37;;;18.34;69.29
75551;BME280;65071;53.082;18.218;2023-07-31T00:21:44;100617.71;;;18.31;69.30
75551;BME280;65071;53.082;18.218;2023-07-31T00:24:10;100621.43;;;18.27;69.96
75551;BME280;65071;53.082;18.218;2023-07-31T00:26:37;100621.27;;;18.25;69.58
75551;BME280;65071;53.082;18.218;2023-07-31T00:29:04;100617.30;;;18.22;69.42
75551;BME280;65071;53.082;18.218;2023-07-31T00:31:31;100615.86;;;18.20;69.74
75551;BME280;65071;53.082;18.218;2023-07-31T00:33:57;100610.33;;;18.19;69.96
75551;BME280;65071;53.082;18.218;2023-07-31T00:36:24;100617.04;;;18.18;69.47
75551;BME280;65071;53.082;18.218;2023-07-31T00:38:50;100628.04;;;18.16;70.39
75551;BME280;65071;53.082;18.218;2023-07-31T00:41:17;100623.67;;;18.14;70.22
75551;BME280;65071;53.082;18.218;2023-07-31T00:43:43;100621.05;;;18.13;70.75
75551;BME280;65071;53.082;18.218;2023-07-31T00:46:10;100619.73;;;18.12;70.37
75551;BME280;65071;53.082;18.218;2023-07-31T00:48:37;100620.16;;;18.12;70.10
75551;BME280;65071;53.082;18.218;2023-07-31T00:51:04;100618.50;;;18.12;70.16
75551;BME280;65071;53.082;18.218;2023-07-31T00:53:31;100625.20;;;18.10;70.36
75551;BME280;65071;53.082;18.218;2023-07-31T00:55:58;100626.80;;;18.09;70.17
75551;BME280;65071;53.082;18.218;2023-07-31T00:58:25;100625.16;;;18.10;70.10
75551;BME280;65071;53.082;18.218;2023-07-31T01:00:52;100624.45;;;18.08;70.71
75551;BME280;65071;53.082;18.218;2023-07-31T01:03:19;100625.84;;;18.10;70.71
75551;BME280;65071;53.082;18.218;2023-07-31T01:08:36;100624.34;;;18.03;71.77
75551;BME280;65071;53.082;18.218;2023-07-31T01:11:16;100628.56;;;17.99;71.92
75551;BME280;65071;53.082;18.218;2023-07-31T01:13:44;100628.48;;;17.93;72.25
75551;BME280;65071;53.082;18.218;2023-07-31T01:16:12;100626.51;;;17.88;72.15
75551;BME280;65071;53.082;18.218;2023-07-31T01:18:38;100628.13;;;17.86;72.49
75551;BME280;65071;53.082;18.218;2023-07-31T01:27:10;100629.09;;;17.76;74.08
75551;BME280;65071;53.082;18.218;2023-07-31T01:30:00;100628.98;;;17.73;73.52
75551;BME280;65071;53.082;18.218;2023-07-31T01:32:28;100626.17;;;17.71;74.01
75551;BME280;65071;53.082;18.218;2023-07-31T01:34:57;100631.36;;;17.69;73.62
75551;BME280;65071;53.082;18.218;2023-07-31T01:37:29;100628.88;;;17.67;73.84
75551;BME280;65071;53.082;18.218;2023-07-31T01:39:56;100634.03;;;17.65;74.00
75551;BME280;65071;53.082;18.218;2023-07-31T01:42:23;100631.41;;;17.63;74.88
75551;BME280;65071;53.082;18.218;2023-07-31T01:44:50;100631.69;;;17.60;74.59
75551;BME280;65071;53.082;18.218;2023-07-31T01:47:17;100631.86;;;17.58;74.55
75551;BME280;65071;53.082;18.218;2023-07-31T01:49:43;100631.61;;;17.56;74.77
75551;BME280;65071;53.082;18.218;2023-07-31T01:52:10;100629.13;;;17.54;75.03
75551;BME280;65071;53.082;18.218;2023-07-31T01:54:37;100624.98;;;17.51;74.37
75551;BME280;65071;53.082;18.218;2023-07-31T01:57:03;100624.38;;;17.47;75.44
75551;BME280;65071;53.082;18.218;2023-07-31T01:59:30;100629.83;;;17.43;74.77
75551;BME280;65071;53.082;18.218;2023-07-31T02:01:56;100626.80;;;17.40;74.84
75551;BME280;65071;53.082;18.218;2023-07-31T02:04:24;100628.42;;;17.39;74.71
75551;BME280;65071;53.082;18.218;2023-07-31T02:06:50;100632.61;;;17.37;75.37
75551;BME280;65071;53.082;18.218;2023-07-31T02:09:17;100634.82;;;17.36;75.24
75551;BME280;65071;53.082;18.218;2023-07-31T02:11:43;100636.66;;;17.36;75.02
75551;BME280;65071;53.082;18.218;2023-07-31T02:14:10;100633.75;;;17.33;75.09
75551;BME280;65071;53.082;18.218;2023-07-31T02:16:36;100635.88;;;17.29;75.22
75551;BME280;65071;53.082;18.218;2023-07-31T02:19:03;100638.23;;;17.25;75.54
75551;BME280;65071;53.082;18.218;2023-07-31T02:21:29;100633.54;;;17.20;75.46
75551;BME280;65071;53.082;18.218;2023-07-31T02:23:56;100636.55;;;17.14;76.16
75551;BME280;65071;53.082;18.218;2023-07-31T02:26:22;100637.05;;;17.07;76.24
75551;BME280;65071;53.082;18.218;2023-07-31T02:28:49;100631.50;;;17.00;76.57
75551;BME280;65071;53.082;18.218;2023-07-31T02:31:15;100634.59;;;16.95;76.17
75551;BME280;65071;53.082;18.218;2023-07-31T02:33:42;100633.74;;;16.88;76.29
75551;BME280;65071;53.082;18.218;2023-07-31T02:36:09;100633.64;;;16.84;75.85
75551;BME280;65071;53.082;18.218;2023-07-31T02:38:36;100638.98;;;16.79;76.10
75551;BME280;65071;53.082;18.218;2023-07-31T02:41:02;100643.48;;;16.75;75.83
75551;BME280;65071;53.082;18.218;2023-07-31T02:43:29;100648.64;;;16.70;76.13
75551;BME280;65071;53.082;18.218;2023-07-31T02:45:56;100649.07;;;16.65;76.11
75551;BME280;65071;53.082;18.218;2023-07-31T02:48:24;100649.50;;;16.61;76.38
75551;BME280;65071;53.082;18.218;2023-07-31T02:50:51;100651.46;;;16.57;76.17
75551;BME280;65071;53.082;18.218;2023-07-31T02:53:17;100649.77;;;16.51;76.31
75551;BME280;65071;53.082;18.218;2023-07-31T02:55:44;100654.52;;;16.45;76.74
75551;BME280;65071;53.082;18.218;2023-07-31T02:58:11;100653.42;;;16.39;76.55
75551;BME280;65071;53.082;18.218;2023-07-31T03:00:42;100655.77;;;16.35;76.93
75551;BME280;65071;53.082;18.218;2023-07-31T03:03:09;100654.30;;;16.31;77.09
75551;BME280;65071;53.082;18.218;2023-07-31T03:05:36;100658.10;;;16.27;77.09
75551;BME280;65071;53.082;18.218;2023-07-31T03:08:03;100657.73;;;16.23;77.00
75551;BME280;65071;53.082;18.218;2023-07-31T03:10:30;100653.09;;;16.21;77.16
75551;BME280;65071;53.082;18.218;2023-07-31T03:12:56;100654.91;;;16.18;77.68
75551;BME280;65071;53.082;18.218;2023-07-31T03:15:23;100654.96;;;16.16;77.55
75551;BME280;65071;53.082;18.218;2023-07-31T03:17:49;100654.19;;;16.15;77.21
75551;BME280;65071;53.082;18.218;2023-07-31T03:20:16;100659.61;;;16.15;77.91
75551;BME280;65071;53.082;18.218;2023-07-31T03:22:43;100661.27;;;16.15;78.46
75551;BME280;65071;53.082;18.218;2023-07-31T03:25:09;100663.00;;;16.16;78.27
75551;BME280;65071;53.082;18.218;2023-07-31T03:27:36;100663.42;;;16.15;78.56
75551;BME280;65071;53.082;18.218;2023-07-31T03:30:03;100659.40;;;16.17;78.66
75551;BME280;65071;53.082;18.218;2023-07-31T03:32:30;100661.11;;;16.19;78.45
75551;BME280;65071;53.082;18.218;2023-07-31T03:34:57;100662.84;;;16.23;78.15
75551;BME280;65071;53.082;18.218;2023-07-31T03:37:25;100667.86;;;16.33;77.84
75551;BME280;65071;53.082;18.218;2023-07-31T03:39:52;100667.61;;;16.45;77.91
75551;BME280;65071;53.082;18.218;2023-07-31T03:42:19;100669.58;;;16.61;77.93
75551;BME280;65071;53.082;18.218;2023-07-31T03:44:45;100672.56;;;16.79;77.61
75551;BME280;65071;53.082;18.218;2023-07-31T03:47:12;100673.08;;;16.99;77.48
75551;BME280;65071;53.082;18.218;2023-07-31T03:49:38;100676.06;;;17.19;76.92
75551;BME280;65071;53.082;18.218;2023-07-31T03:52:05;100678.69;;;17.33;76.47
75551;BME280;65071;53.082;18.218;2023-07-31T03:54:32;100678.97;;;17.33;76.31
75551;BME280;65071;53.082;18.218;2023-07-31T03:56:58;100675.56;;;17.30;75.95
75551;BME280;65071;53.082;18.218;2023-07-31T03:59:25;100678.16;;;17.29;76.05
75551;BME280;65071;53.082;18.218;2023-07-31T04:01:51;100677.86;;;17.50;75.89
75551;BME280;65071;53.082;18.218;2023-07-31T04:04:18;100677.09;;;17.79;75.32
75551;BME280;65071;53.082;18.218;2023-07-31T04:06:44;100676.41;;;18.10;74.81
75551;BME280;65071;53.082;18.218;2023-07-31T04:09:11;100679.27;;;18.43;74.07
75551;BME280;65071;53.082;18.218;2023-07-31T04:11:37;100674.68;;;18.62;72.65
75551;BME280;65071;53.082;18.218;2023-07-31T04:14:05;100679.02;;;18.62;72.41
75551;BME280;65071;53.082;18.218;2023-07-31T04:16:32;100677.73;;;18.58;71.30
75551;BME280;65071;53.082;18.218;2023-07-31T04:18:58;100679.73;;;18.50;71.76
75551;BME280;65071;53.082;18.218;2023-07-31T04:21:25;100681.60;;;18.39;71.71
75551;BME280;65071;53.082;18.218;2023-07-31T04:23:51;100674.52;;;18.29;71.47
75551;BME280;65071;53.082;18.218;2023-07-31T04:26:22;100667.25;;;18.20;71.62
75551;BME280;65071;53.082;18.218;2023-07-31T04:28:48;100670.02;;;18.11;71.95
75551;BME280;65071;53.082;18.218;2023-07-31T04:31:15;100668.52;;;18.04;71.83
75551;BME280;65071;53.082;18.218;2023-07-31T04:33:41;100665.60;;;17.98;71.71
75551;BME280;65071;53.082;18.218;2023-07-31T04:36:08;100667.55;;;17.92;71.87
75551;BME280;65071;53.082;18.218;2023-07-31T04:38:34;100665.89;;;17.89;71.77
75551;BME280;65071;53.082;18.218;2023-07-31T04:41:00;100664.87;;;17.93;71.53
75551;BME280;65071;53.082;18.218;2023-07-31T04:43:27;100665.48;;;18.02;71.50
75551;BME280;65071;53.082;18.218;2023-07-31T04:45:53;100667.35;;;18.36;70.99
75551;BME280;65071;53.082;18.218;2023-07-31T04:48:20;100670.23;;;19.06;69.97
75551;BME280;65071;53.082;18.218;2023-07-31T04:50:47;100664.67;;;19.86;67.67
75551;BME280;65071;53.082;18.218;2023-07-31T04:53:13;100664.85;;;20.36;66.35
75551;BME280;65071;53.082;18.218;2023-07-31T04:55:40;100664.12;;;20.46;65.78
75551;BME280;65071;53.082;18.218;2023-07-31T04:58:06;100660.25;;;20.45;64.95
75551;BME280;65071;53.082;18.218;2023-07-31T05:00:33;100668.65;;;20.50;66.08
75551;BME280;65071;53.082;18.218;2023-07-31T05:03:00;100675.05;;;20.67;64.91
75551;BME280;65071;53.082;18.218;2023-07-31T05:05:26;100678.20;;;21.00;64.80
75551;BME280;65071;53.082;18.218;2023-07-31T05:07:53;100677.73;;;21.42;62.77
75551;BME280;65071;53.082;18.218;2023-07-31T05:10:19;100674.88;;;21.68;62.85
75551;BME280;65071;53.082;18.218;2023-07-31T05:12:46;100666.69;;;21.92;60.35
75551;BME280;65071;53.082;18.218;2023-07-31T05:15:12;100669.36;;;22.00;59.30
75551;BME280;65071;53.082;18.218;2023-07-31T05:17:39;100662.45;;;21.85;59.02
75551;BME280;65071;53.082;18.218;2023-07-31T05:20:06;100671.97;;;21.74;59.37
75551;BME280;65071;53.082;18.218;2023-07-31T05:22:33;100679.59;;;21.61;58.21
75551;BME280;65071;53.082;18.218;2023-07-31T05:24:59;100677.63;;;21.58;58.42
75551;BME280;65071;53.082;18.218;2023-07-31T05:27:26;100681.13;;;21.55;59.48
75551;BME280;65071;53.082;18.218;2023-07-31T05:29:52;100688.02;;;21.67;59.18
75551;BME280;65071;53.082;18.218;2023-07-31T05:32:19;100690.99;;;21.77;58.45
75551;BME280;65071;53.082;18.218;2023-07-31T05:34:45;100689.45;;;21.79;58.40
75551;BME280;65071;53.082;18.218;2023-07-31T05:37:12;100682.86;;;21.79;58.03
75551;BME280;65071;53.082;18.218;2023-07-31T05:39:39;100677.95;;;21.67;57.63
75551;BME280;65071;53.082;18.218;2023-07-31T05:42:05;100675.45;;;21.69;57.46
75551;BME280;65071;53.082;18.218;2023-07-31T05:44:32;100670.45;;;21.74;58.13
75551;BME280;65071;53.082;18.218;2023-07-31T05:46:58;100670.45;;;21.81;56.94
75551;BME280;65071;53.082;18.218;2023-07-31T05:49:24;100664.92;;;21.88;57.04
75551;BME280;65071;53.082;18.218;2023-07-31T05:51:51;100675.35;;;21.86;56.63
75551;BME280;65071;53.082;18.218;2023-07-31T05:54:18;100669.27;;;21.89;56.79
75551;BME280;65071;53.082;18.218;2023-07-31T05:56:44;100668.23;;;21.97;56.58
75551;BME280;65071;53.082;18.218;2023-07-31T05:59:12;100667.76;;;22.05;56.68
75551;BME280;65071;53.082;18.218;2023-07-31T06:01:39;100669.58;;;22.09;55.98
75551;BME280;65071;53.082;18.218;2023-07-31T06:04:05;100667.65;;;22.07;56.06
75551;BME280;65071;53.082;18.218;2023-07-31T06:06:32;100662.89;;;22.02;55.17
75551;BME280;65071;53.082;18.218;2023-07-31T06:08:59;100662.59;;;21.92;55.45
75551;BME280;65071;53.082;18.218;2023-07-31T06:11:25;100663.54;;;21.86;55.54
75551;BME280;65071;53.082;18.218;2023-07-31T06:13:52;100664.23;;;21.87;55.31
75551;BME280;65071;53.082;18.218;2023-07-31T06:16:18;100666.12;;;21.93;55.49
75551;BME280;65071;53.082;18.218;2023-07-31T06:18:45;100671.48;;;22.05;56.11
75551;BME280;65071;53.082;18.218;2023-07-31T06:21:11;100673.77;;;22.19;55.61
75551;BME280;65071;53.082;18.218;2023-07-31T06:23:38;100678.55;;;22.28;55.30
75551;BME280;65071;53.082;18.218;2023-07-31T06:26:04;100682.52;;;22.38;55.13
75551;BME280;65071;53.082;18.218;2023-07-31T06:28:32;100679.14;;;22.37;54.66
75551;BME280;65071;53.082;18.218;2023-07-31T06:30:58;100676.99;;;22.34;54.19
75551;BME280;65071;53.082;18.218;2023-07-31T06:33:25;100678.71;;;22.32;54.35
75551;BME280;65071;53.082;18.218;2023-07-31T06:35:51;100677.63;;;22.44;54.23
75551;BME280;65071;53.082;18.218;2023-07-31T06:38:22;100679.83;;;22.48;54.27
75551;BME280;65071;53.082;18.218;2023-07-31T06:40:49;100680.85;;;22.43;53.97
75551;BME280;65071;53.082;18.218;2023-07-31T06:43:16;100681.87;;;22.40;54.02
75551;BME280;65071;53.082;18.218;2023-07-31T06:45:42;100683.57;;;22.42;54.13
75551;BME280;65071;53.082;18.218;2023-07-31T06:48:09;100682.43;;;22.47;54.21
75551;BME280;65071;53.082;18.218;2023-07-31T06:50:35;100681.27;;;22.55;53.92
75551;BME280;65071;53.082;18.218;2023-07-31T06:53:03;100680.48;;;22.51;53.42
75551;BME280;65071;53.082;18.218;2023-07-31T06:55:29;100681.92;;;22.48;53.94
75551;BME280;65071;53.082;18.218;2023-07-31T06:57:56;100680.77;;;22.58;53.39
75551;BME280;65071;53.082;18.218;2023-07-31T07:00:23;100680.87;;;22.64;53.46
75551;BME280;65071;53.082;18.218;2023-07-31T07:02:50;100680.54;;;22.57;53.15
75551;BME280;65071;53.082;18.218;2023-07-31T07:05:17;100684.55;;;22.48;52.89
75551;BME280;65071;53.082;18.218;2023-07-31T07:07:44;100687.24;;;22.46;53.10
75551;BME280;65071;53.082;18.218;2023-07-31T07:10:11;100681.80;;;22.51;53.56
75551;BME280;65071;53.082;18.218;2023-07-31T07:12:37;100682.64;;;22.59;53.43
75551;BME280;65071;53.082;18.218;2023-07-31T07:15:04;100682.98;;;22.62;53.34
75551;BME280;65071;53.082;18.218;2023-07-31T07:17:31;100684.67;;;22.61;52.92
75551;BME280;65071;53.082;18.218;2023-07-31T07:19:58;100684.66;;;22.55;52.87
75551;BME280;65071;53.082;18.218;2023-07-31T07:22:25;100691.61;;;22.52;53.05
75551;BME280;65071;53.082;18.218;2023-07-31T07:24:52;100685.41;;;22.50;53.32
75551;BME280;65071;53.082;18.218;2023-07-31T07:27:19;100685.70;;;22.50;53.39
75551;BME280;65071;53.082;18.218;2023-07-31T07:29:46;100684.65;;;22.49;53.58
75551;BME280;65071;53.082;18.218;2023-07-31T07:32:13;100685.70;;;22.48;53.54
75551;BME280;65071;53.082;18.218;2023-07-31T07:34:39;100683.67;;;22.50;53.76
75551;BME280;65071;53.082;18.218;2023-07-31T07:37:06;100689.86;;;22.55;53.73
75551;BME280;65071;53.082;18.218;2023-07-31T07:39:32;100692.36;;;22.59;53.47
75551;BME280;65071;53.082;18.218;2023-07-31T07:41:59;100692.75;;;22.62;53.35
75551;BME280;65071;53.082;18.218;2023-07-31T07:44:25;100688.51;;;22.70;53.43
75551;BME280;65071;53.082;18.218;2023-07-31T07:46:53;100685.83;;;22.78;53.26
75551;BME280;65071;53.082;18.218;2023-07-31T07:49:19;100687.96;;;22.88;53.12
75551;BME280;65071;53.082;18.218;2023-07-31T07:51:48;100692.52;;;22.99;52.47
75551;BME280;65071;53.082;18.218;2023-07-31T07:54:16;100691.22;;;23.16;52.57
75551;BME280;65071;53.082;18.218;2023-07-31T07:56:47;100687.08;;;23.34;51.40
75551;BME280;65071;53.082;18.218;2023-07-31T07:59:14;100680.88;;;23.53;51.10
75551;BME280;65071;53.082;18.218;2023-07-31T08:01:40;100681.00;;;23.65;50.83
75551;BME280;65071;53.082;18.218;2023-07-31T08:04:07;100675.42;;;23.82;50.56
75551;BME280;65071;53.082;18.218;2023-07-31T08:06:33;100675.73;;;24.16;50.44
75551;BME280;65071;53.082;18.218;2023-07-31T08:09:00;100675.19;;;24.44;49.75
75551;BME280;65071;53.082;18.218;2023-07-31T08:11:34;100677.95;;;24.64;49.16
75551;BME280;65071;53.082;18.218;2023-07-31T08:14:01;100676.34;;;24.81;48.15
75551;BME280;65071;53.082;18.218;2023-07-31T08:16:27;100673.16;;;24.94;48.18
75551;BME280;65071;53.082;18.218;2023-07-31T08:18:54;100673.30;;;25.06;46.87
75551;BME280;65071;53.082;18.218;2023-07-31T08:21:21;100674.86;;;25.16;46.75
75551;BME280;65071;53.082;18.218;2023-07-31T08:23:47;100677.34;;;25.21;46.29
75551;BME280;65071;53.082;18.218;2023-07-31T08:26:18;100674.61;;;25.24;45.10
75551;BME280;65071;53.082;18.218;2023-07-31T08:28:45;100670.69;;;25.20;44.61
75551;BME280;65071;53.082;18.218;2023-07-31T08:31:11;100672.20;;;25.21;45.06
75551;BME280;65071;53.082;18.218;2023-07-31T08:33:39;100672.02;;;25.23;45.20
75551;BME280;65071;53.082;18.218;2023-07-31T08:36:06;100667.13;;;25.19;45.03
75551;BME280;65071;53.082;18.218;2023-07-31T08:38:33;100665.07;;;25.11;44.54
75551;BME280;65071;53.082;18.218;2023-07-31T08:41:00;100664.09;;;25.13;44.80
75551;BME280;65071;53.082;18.218;2023-07-31T08:43:26;100662.23;;;25.24;45.34
75551;BME280;65071;53.082;18.218;2023-07-31T08:45:54;100657.16;;;25.31;45.04
75551;BME280;65071;53.082;18.218;2023-07-31T08:48:23;100652.77;;;25.40;44.51
75551;BME280;65071;53.082;18.218;2023-07-31T08:50:53;100651.73;;;25.45;44.99
75551;BME280;65071;53.082;18.218;2023-07-31T08:53:20;100647.45;;;25.46;44.20
75551;BME280;65071;53.082;18.218;2023-07-31T08:55:48;100644.55;;;25.43;43.74
75551;BME280;65071;53.082;18.218;2023-07-31T08:58:15;100644.44;;;25.33;43.57
75551;BME280;65071;53.082;18.218;2023-07-31T09:00:43;100645.32;;;25.30;44.11
75551;BME280;65071;53.082;18.218;2023-07-31T09:03:14;100650.98;;;25.24;44.02
75551;BME280;65071;53.082;18.218;2023-07-31T09:05:43;100650.23;;;25.23;43.92
75551;BME280;65071;53.082;18.218;2023-07-31T09:08:12;100648.75;;;25.19;44.80
75551;BME280;65071;53.082;18.218;2023-07-31T09:10:42;100643.80;;;25.14;44.73
75551;BME280;65071;53.082;18.218;2023-07-31T09:13:09;100643.34;;;25.13;45.18
75551;BME280;65071;53.082;18.218;2023-07-31T09:15:36;100640.28;;;25.23;45.36
75551;BME280;65071;53.082;18.218;2023-07-31T09:18:05;100634.13;;;25.30;44.70
75551;BME280;65071;53.082;18.218;2023-07-31T09:20:33;100631.73;;;25.38;44.62
75551;BME280;65071;53.082;18.218;2023-07-31T09:23:20;100629.54;;;25.37;44.77
75551;BME280;65071;53.082;18.218;2023-07-31T09:25:48;100625.80;;;25.36;44.35
75551;BME280;65071;53.082;18.218;2023-07-31T09:28:14;100624.55;;;25.33;44.78
75551;BME280;65071;53.082;18.218;2023-07-31T09:30:48;100622.89;;;25.32;44.33
75551;BME280;65071;53.082;18.218;2023-07-31T09:33:17;100619.58;;;25.36;45.08
75551;BME280;65071;53.082;18.218;2023-07-31T09:35:44;100612.95;;;25.42;44.69
75551;BME280;65071;53.082;18.218;2023-07-31T09:38:12;100611.75;;;25.42;44.88
75551;BME280;65071;53.082;18.218;2023-07-31T09:40:42;100609.56;;;25.45;45.03
75551;BME280;65071;53.082;18.218;2023-07-31T09:43:10;100606.39;;;25.44;45.03
75551;BME280;65071;53.082;18.218;2023-07-31T09:45:39;100604.92;;;25.45;45.07
75551;BME280;65071;53.082;18.218;2023-07-31T09:48:10;100602.63;;;25.50;45.15
75551;BME280;65071;53.082;18.218;2023-07-31T09:50:38;100597.41;;;25.49;44.55
75551;BME280;65071;53.082;18.218;2023-07-31T09:53:06;100593.34;;;25.37;44.36
75551;BME280;65071;53.082;18.218;2023-07-31T09:55:34;100591.78;;;25.22;45.00
75551;BME280;65071;53.082;18.218;2023-07-31T09:58:05;100587.99;;;25.03;45.53
75551;BME280;65071;53.082;18.218;2023-07-31T10:00:33;100584.31;;;24.76;45.51
75551;BME280;65071;53.082;18.218;2023-07-31T10:03:01;100584.52;;;24.42;46.21
75551;BME280;65071;53.082;18.218;2023-07-31T10:05:35;100597.38;;;24.14;47.41
75551;BME280;65071;53.082;18.218;2023-07-31T10:08:01;100605.25;;;23.93;50.61
75551;BME280;65071;53.082;18.218;2023-07-31T10:10:29;100612.33;;;23.72;52.69
75551;BME280;65071;53.082;18.218;2023-07-31T10:12:56;100615.23;;;23.49;54.23
75551;BME280;65071;53.082;18.218;2023-07-31T10:15:25;100621.83;;;23.18;56.15
75551;BME280;65071;53.082;18.218;2023-07-31T10:17:53;100625.29;;;22.80;57.40
75551;BME280;65071;53.082;18.218;2023-07-31T10:20:20;100626.46;;;22.57;58.63
75551;BME280;65071;53.082;18.218;2023-07-31T10:22:48;100610.61;;;22.41;58.50
75551;BME280;65071;53.082;18.218;2023-07-31T10:25:15;100609.71;;;22.34;59.64
75551;BME280;65071;53.082;18.218;2023-07-31T10:27:43;100601.52;;;22.36;59.16
75551;BME280;65071;53.082;18.218;2023-07-31T10:30:14;100597.80;;;22.39;61.72
75551;BME280;65071;53.082;18.218;2023-07-31T10:32:43;100606.38;;;22.39;61.33
75551;BME280;65071;53.082;18.218;2023-07-31T10:35:11;100593.89;;;22.33;60.97
75551;BME280;65071;53.082;18.218;2023-07-31T10:37:39;100584.45;;;22.25;60.40
75551;BME280;65071;53.082;18.218;2023-07-31T10:40:16;100576.00;;;22.22;60.15
75551;BME280;65071;53.082;18.218;2023-07-31T10:42:50;100575.61;;;22.34;60.09
75551;BME280;65071;53.082;18.218;2023-07-31T10:45:26;100570.73;;;22.49;60.80
75551;BME280;65071;53.082;18.218;2023-07-31T10:50:56;100566.98;;;23.01;61.92
75551;BME280;65071;53.082;18.218;2023-07-31T10:53:29;100564.23;;;23.24;61.83
75551;BME280;65071;53.082;18.218;2023-07-31T10:56:01;100559.27;;;23.47;61.71
75551;BME280;65071;53.082;18.218;2023-07-31T10:58:28;100560.09;;;23.70;61.07
75551;BME280;65071;53.082;18.218;2023-07-31T11:00:56;100557.97;;;23.81;59.31
75551;BME280;65071;53.082;18.218;2023-07-31T11:03:26;100553.65;;;23.85;58.96
75551;BME280;65071;53.082;18.218;2023-07-31T11:08:32;100541.88;;;24.13;57.00
75551;BME280;65071;53.082;18.218;2023-07-31T11:13:34;100537.53;;;23.94;54.82
75551;BME280;65071;53.082;18.218;2023-07-31T11:16:05;100533.77;;;23.80;54.63
75551;BME280;65071;53.082;18.218;2023-07-31T11:18:32;100534.30;;;23.66;55.70
75551;BME280;65071;53.082;18.218;2023-07-31T11:20:59;100527.42;;;23.54;56.72
75551;BME280;65071;53.082;18.218;2023-07-31T11:23:25;100525.74;;;23.38;56.57
75551;BME280;65071;53.082;18.218;2023-07-31T11:25:52;100525.98;;;23.20;56.94
75551;BME280;65071;53.082;18.218;2023-07-31T11:28:19;100531.80;;;23.01;56.14
75551;BME280;65071;53.082;18.218;2023-07-31T11:30:46;100529.25;;;22.79;56.18
75551;BME280;65071;53.082;18.218;2023-07-31T11:33:13;100535.45;;;22.63;56.13
75551;BME280;65071;53.082;18.218;2023-07-31T11:35:48;100530.74;;;22.42;55.80
75551;BME280;65071;53.082;18.218;2023-07-31T11:38:29;100535.61;;;22.30;56.82
75551;BME280;65071;53.082;18.218;2023-07-31T11:41:01;100535.60;;;22.20;57.35
75551;BME280;65071;53.082;18.218;2023-07-31T11:43:31;100536.02;;;22.21;57.09
75551;BME280;65071;53.082;18.218;2023-07-31T11:45:59;100535.88;;;22.16;57.67
75551;BME280;65071;53.082;18.218;2023-07-31T11:48:31;100539.47;;;22.10;57.24
75551;BME280;65071;53.082;18.218;2023-07-31T11:51:01;100533.66;;;22.02;57.14
75551;BME280;65071;53.082;18.218;2023-07-31T11:53:45;100528.85;;;22.16;57.91
75551;BME280;65071;53.082;18.218;2023-07-31T11:56:17;100528.63;;;22.53;57.53
75551;BME280;65071;53.082;18.218;2023-07-31T11:58:46;100528.34;;;22.87;56.55
75551;BME280;65071;53.082;18.218;2023-07-31T12:01:15;100522.63;;;23.20;55.87
75551;BME280;65071;53.082;18.218;2023-07-31T12:03:45;100522.49;;;23.52;54.46
75551;BME280;65071;53.082;18.218;2023-07-31T12:06:12;100531.86;;;23.68;55.11
75551;BME280;65071;53.082;18.218;2023-07-31T12:08:39;100526.28;;;23.83;54.35
75551;BME280;65071;53.082;18.218;2023-07-31T12:11:09;100524.02;;;23.95;54.15
75551;BME280;65071;53.082;18.218;2023-07-31T12:13:36;100522.71;;;24.08;54.09
75551;BME280;65071;53.082;18.218;2023-07-31T12:16:03;100518.77;;;24.15;53.02
75551;BME280;65071;53.082;18.218;2023-07-31T12:18:37;100524.20;;;24.07;52.75
75551;BME280;65071;53.082;18.218;2023-07-31T12:21:06;100521.84;;;23.90;53.86
75551;BME280;65071;53.082;18.218;2023-07-31T12:23:35;100522.46;;;23.78;54.10
75551;BME280;65071;53.082;18.218;2023-07-31T12:28:49;100514.09;;;23.46;54.19
75551;BME280;65071;53.082;18.218;2023-07-31T12:31:21;100511.94;;;23.28;54.69
75551;BME280;65071;53.082;18.218;2023-07-31T12:33:51;100511.43;;;23.10;55.88
75551;BME280;65071;53.082;18.218;2023-07-31T12:36:21;100515.38;;;22.92;57.41
75551;BME280;65071;53.082;18.218;2023-07-31T12:38:50;100514.98;;;22.84;57.97
75551;BME280;65071;53.082;18.218;2023-07-31T12:41:17;100509.77;;;22.83;57.26
75551;BME280;65071;53.082;18.218;2023-07-31T12:43:45;100507.69;;;22.93;57.08
75551;BME280;65071;53.082;18.218;2023-07-31T12:46:12;100503.31;;;23.09;56.40
75551;BME280;65071;53.082;18.218;2023-07-31T12:48:39;100505.81;;;23.20;56.30
75551;BME280;65071;53.082;18.218;2023-07-31T12:51:06;100498.20;;;23.14;56.07
75551;BME280;65071;53.082;18.218;2023-07-31T12:53:33;100502.16;;;23.04;56.22
75551;BME280;65071;53.082;18.218;2023-07-31T12:56:01;100503.36;;;22.91;56.54
75551;BME280;65071;53.082;18.218;2023-07-31T12:58:28;100500.41;;;22.83;56.31
75551;BME280;65071;53.082;18.218;2023-07-31T13:00:55;100497.30;;;22.80;56.82
75551;BME280;65071;53.082;18.218;2023-07-31T13:03:24;100499.92;;;22.75;56.86